createdAt,value
2018-12-15T00:02:22.456Z,-0.26
2018-12-15T00:05:26.245Z,-0.30
2018-12-15T00:08:29.765Z,-0.31
2018-12-15T00:11:33.440Z,-0.29
2018-12-15T00:14:36.933Z,-0.24
2018-12-15T00:17:40.409Z,-0.28
2018-12-15T00:20:43.980Z,-0.30
2018-12-15T00:26:44.590Z,-0.30
2018-12-15T00:29:48.155Z,-0.34
2018-12-15T00:32:51.595Z,-0.29
2018-12-15T00:35:55.140Z,-0.31
2018-12-15T00:38:58.635Z,-0.29
2018-12-15T00:42:02.241Z,-0.24
2018-12-15T00:45:06.361Z,-0.23
2018-12-15T00:48:10.295Z,-0.27
2018-12-15T00:51:13.885Z,-0.29
2018-12-15T00:54:18.016Z,-0.23
2018-12-15T00:57:21.646Z,-0.27
2018-12-15T01:00:26.149Z,-0.23
2018-12-15T01:03:30.109Z,-0.25
2018-12-15T01:06:33.641Z,-0.26
2018-12-15T01:09:37.271Z,-0.27
2018-12-15T01:12:40.781Z,-0.28
2018-12-15T01:15:45.359Z,-0.26
2018-12-15T01:18:48.885Z,-0.25
2018-12-15T01:21:52.407Z,-0.25
2018-12-15T01:24:55.900Z,-0.25
2018-12-15T01:27:59.412Z,-0.26
2018-12-15T01:31:02.945Z,-0.27
2018-12-15T01:34:06.540Z,-0.26
2018-12-15T01:37:10.130Z,-0.29
2018-12-15T01:40:13.735Z,-0.26
2018-12-15T01:43:17.272Z,-0.21
2018-12-15T01:46:20.820Z,-0.25
2018-12-15T01:49:24.354Z,-0.28
2018-12-15T01:52:27.948Z,-0.22
2018-12-15T01:55:31.850Z,-0.26
2018-12-15T01:58:35.416Z,-0.23
2018-12-15T02:01:38.952Z,-0.24
2018-12-15T02:04:44.130Z,-0.19
2018-12-15T02:07:47.807Z,-0.27
2018-12-15T02:10:51.335Z,-0.28
2018-12-15T02:13:54.820Z,-0.24
2018-12-15T02:16:58.425Z,-0.20
2018-12-15T02:20:02.052Z,-0.17
2018-12-15T02:23:05.595Z,-0.22
2018-12-15T02:26:09.101Z,-0.23
2018-12-15T02:29:16.431Z,-0.17
2018-12-15T02:32:19.978Z,-0.24
2018-12-15T02:35:23.487Z,-0.20
2018-12-15T02:38:27.002Z,-0.17
2018-12-15T02:41:30.540Z,-0.19
2018-12-15T02:44:34.117Z,-0.17
2018-12-15T02:47:41.383Z,-0.25
2018-12-15T02:50:44.245Z,-0.22
2018-12-15T02:53:47.822Z,-0.12
2018-12-15T02:56:51.323Z,-0.20
2018-12-15T02:59:54.845Z,-0.23
2018-12-15T03:02:58.596Z,-0.25
2018-12-15T03:06:02.056Z,-0.21
2018-12-15T03:09:07.394Z,-0.21
2018-12-15T03:12:10.939Z,-0.24
2018-12-15T03:15:14.539Z,-0.22
2018-12-15T03:18:18.081Z,-0.31
2018-12-15T03:21:21.604Z,-0.30
2018-12-15T03:24:25.181Z,-0.29
2018-12-15T03:27:29.315Z,-0.30
2018-12-15T03:30:32.954Z,-0.34
2018-12-15T03:33:36.527Z,-0.32
2018-12-15T03:36:40.043Z,-0.23
2018-12-15T03:39:44.443Z,-0.26
2018-12-15T03:42:48.260Z,-0.30
2018-12-15T03:45:51.772Z,-0.26
2018-12-15T03:48:55.247Z,-0.22
2018-12-15T03:51:58.789Z,-0.27
2018-12-15T03:55:02.306Z,-0.28
2018-12-15T03:58:06.430Z,-0.25
2018-12-15T04:01:10.100Z,-0.26
2018-12-15T04:04:13.566Z,-0.23
2018-12-15T04:07:17.105Z,-0.23
2018-12-15T04:10:20.807Z,-0.27
2018-12-15T04:13:24.359Z,-0.29
2018-12-15T04:16:27.927Z,-0.27
2018-12-15T04:19:31.495Z,-0.29
2018-12-15T04:22:35.138Z,-0.21
2018-12-15T04:25:38.654Z,-0.23
2018-12-15T04:28:42.198Z,-0.22
2018-12-15T04:31:46.658Z,-0.24
2018-12-15T04:34:50.278Z,-0.26
2018-12-15T04:37:53.839Z,-0.25
2018-12-15T04:40:57.353Z,-0.27
2018-12-15T04:44:01.335Z,-0.17
2018-12-15T04:47:05.198Z,-0.15
2018-12-15T04:50:08.892Z,-0.09
2018-12-15T04:53:12.447Z,-0.14
2018-12-15T04:56:16.070Z,-0.13
2018-12-15T04:59:19.797Z,-0.12
2018-12-15T05:02:23.350Z,-0.21
2018-12-15T05:05:27.088Z,-0.23
2018-12-15T05:08:30.532Z,-0.25
2018-12-15T05:11:34.092Z,-0.17
2018-12-15T05:14:37.691Z,-0.14
2018-12-15T05:17:41.166Z,-0.11
2018-12-15T05:20:44.810Z,-0.15
2018-12-15T05:23:48.349Z,-0.10
2018-12-15T05:26:51.795Z,-0.01
2018-12-15T05:29:55.576Z,-0.08
2018-12-15T05:32:59.127Z,-0.20
2018-12-15T05:36:02.664Z,-0.23
2018-12-15T05:39:07.116Z,-0.17
2018-12-15T05:42:10.701Z,-0.14
2018-12-15T05:45:14.250Z,-0.15
2018-12-15T05:48:17.776Z,-0.20
2018-12-15T05:51:21.452Z,-0.15
2018-12-15T05:54:25.050Z,-0.24
2018-12-15T05:57:28.631Z,-0.17
2018-12-15T06:00:32.268Z,-0.22
2018-12-15T06:03:35.775Z,-0.17
2018-12-15T06:06:39.402Z,-0.16
2018-12-15T06:15:17.151Z,-0.11
2018-12-15T06:18:20.743Z,-0.11
2018-12-15T06:21:24.247Z,-0.20
2018-12-15T06:24:27.872Z,-0.15
2018-12-15T06:27:31.466Z,-0.12
2018-12-15T06:30:35.063Z,-0.03
2018-12-15T06:33:38.621Z,-0.06
2018-12-15T06:36:42.190Z,0.03
2018-12-15T06:39:46.698Z,0.17
2018-12-15T06:42:50.242Z,0.19
2018-12-15T06:45:54.145Z,0.18
2018-12-15T06:48:57.615Z,0.16
2018-12-15T06:52:01.197Z,0.20
2018-12-15T06:55:04.881Z,0.16
2018-12-15T06:58:08.356Z,0.19
2018-12-15T07:01:11.907Z,0.09
2018-12-15T07:04:15.519Z,0.18
2018-12-15T07:07:19.016Z,0.31
2018-12-15T07:10:22.526Z,0.17
2018-12-15T07:13:26.066Z,0.15
2018-12-15T07:16:29.580Z,0.20
2018-12-15T07:19:33.302Z,0.25
2018-12-15T07:22:36.810Z,0.33
2018-12-15T07:25:40.964Z,0.33
2018-12-15T07:28:46.085Z,0.28
2018-12-15T07:31:49.670Z,0.23
2018-12-15T07:34:53.130Z,0.29
2018-12-15T07:37:56.605Z,0.28
2018-12-15T07:41:00.918Z,0.25
2018-12-15T07:44:04.584Z,0.33
2018-12-15T07:47:08.124Z,0.35
2018-12-15T07:50:11.759Z,0.37
2018-12-15T07:53:15.245Z,0.24
2018-12-15T07:56:20.880Z,0.29
2018-12-15T07:59:24.509Z,0.32
2018-12-15T08:02:28.099Z,0.34
2018-12-15T08:05:31.744Z,0.39
2018-12-15T08:08:35.254Z,0.46
2018-12-15T08:11:44.137Z,0.39
2018-12-15T08:14:47.671Z,0.50
2018-12-15T08:17:54.027Z,0.46
2018-12-15T08:20:57.694Z,0.55
2018-12-15T08:24:01.230Z,0.49
2018-12-15T08:27:04.984Z,0.47
2018-12-15T08:30:09.991Z,0.55
2018-12-15T08:33:13.566Z,0.52
2018-12-15T08:36:17.244Z,0.54
2018-12-15T08:39:20.694Z,0.58
2018-12-15T08:42:24.239Z,0.51
2018-12-15T08:45:27.860Z,0.55
2018-12-15T08:48:31.389Z,0.66
2018-12-15T08:51:35.236Z,0.76
2018-12-15T08:54:38.893Z,0.69
2018-12-15T08:57:42.406Z,0.76
2018-12-15T09:00:45.993Z,0.66
2018-12-15T09:03:49.629Z,0.71
2018-12-15T09:06:53.071Z,0.69
2018-12-15T09:09:56.764Z,0.62
2018-12-15T09:13:00.395Z,0.75
2018-12-15T09:16:03.999Z,0.79
2018-12-15T09:19:11.252Z,0.73
2018-12-15T09:22:13.214Z,0.81
2018-12-15T09:25:16.710Z,0.97
2018-12-15T09:28:20.298Z,0.88
2018-12-15T09:31:23.775Z,0.94
2018-12-15T09:34:27.383Z,0.96
2018-12-15T09:37:30.894Z,0.97
2018-12-15T09:40:34.638Z,1.11
2018-12-15T09:43:38.224Z,0.99
2018-12-15T09:46:41.737Z,1.05
2018-12-15T09:49:45.795Z,1.04
2018-12-15T09:52:49.358Z,1.06
2018-12-15T09:55:52.843Z,1.17
2018-12-15T09:58:56.342Z,1.24
2018-12-15T10:01:59.818Z,1.04
2018-12-15T10:05:03.379Z,0.97
2018-12-15T10:08:06.859Z,0.96
2018-12-15T10:11:10.418Z,1.18
2018-12-15T10:14:15.103Z,1.18
2018-12-15T10:17:18.724Z,1.04
2018-12-15T10:20:22.397Z,0.98
2018-12-15T10:23:26.069Z,0.98
2018-12-15T10:26:29.762Z,1.23
2018-12-15T10:29:38.545Z,1.14
2018-12-15T10:32:47.389Z,1.11
2018-12-15T10:35:50.973Z,1.10
2018-12-15T10:38:54.578Z,1.04
2018-12-15T10:41:58.802Z,1.07
2018-12-15T10:45:02.489Z,1.19
2018-12-15T10:48:06.117Z,1.22
2018-12-15T10:51:09.782Z,1.18
2018-12-15T10:54:13.333Z,1.02
2018-12-15T10:57:16.970Z,1.13
2018-12-15T11:00:26.754Z,1.04
2018-12-15T11:03:30.314Z,1.11
2018-12-15T11:06:33.835Z,1.03
2018-12-15T11:09:37.303Z,1.08
2018-12-15T11:12:40.847Z,1.02
2018-12-15T11:15:46.210Z,1.01
2018-12-15T11:18:49.908Z,1.22
2018-12-15T11:21:53.510Z,1.13
2018-12-15T11:24:57.019Z,1.12
2018-12-15T11:28:00.477Z,1.10
2018-12-15T11:31:04.012Z,1.05
2018-12-15T11:34:07.593Z,0.97
2018-12-15T11:37:11.053Z,1.09
2018-12-15T11:40:15.052Z,1.08
2018-12-15T11:43:18.660Z,1.23
2018-12-15T11:46:22.308Z,1.28
2018-12-15T11:49:25.944Z,1.02
2018-12-15T11:52:29.515Z,1.08
2018-12-15T11:55:33.093Z,1.21
2018-12-15T11:58:36.640Z,1.03
2018-12-15T12:01:40.115Z,1.40
2018-12-15T12:04:43.716Z,1.33
2018-12-15T12:07:47.353Z,1.26
2018-12-15T12:10:50.884Z,1.01
2018-12-15T12:14:00.134Z,1.11
2018-12-15T12:16:59.889Z,1.12
2018-12-15T12:20:04.815Z,0.90
2018-12-15T12:23:08.302Z,1.06
2018-12-15T12:26:11.770Z,1.19
2018-12-15T12:29:15.408Z,1.03
2018-12-15T12:32:18.950Z,1.05
2018-12-15T12:35:22.457Z,0.97
2018-12-15T12:38:25.972Z,0.90
2018-12-15T12:41:29.517Z,0.80
2018-12-15T12:44:33.224Z,0.79
2018-12-15T12:47:36.808Z,0.92
2018-12-15T12:50:40.278Z,0.83
2018-12-15T12:53:43.804Z,0.80
2018-12-15T12:56:47.305Z,0.76
2018-12-15T12:59:50.877Z,0.83
2018-12-15T13:02:54.774Z,0.88
2018-12-15T13:05:58.489Z,0.77
2018-12-15T13:09:02.092Z,0.74
2018-12-15T13:12:05.741Z,0.72
2018-12-15T13:15:09.313Z,0.88
2018-12-15T13:18:12.868Z,0.68
2018-12-15T13:21:16.484Z,0.67
2018-12-15T13:24:20.012Z,0.61
2018-12-15T13:27:23.513Z,0.65
2018-12-15T13:30:27.237Z,0.64
2018-12-15T13:33:34.804Z,0.54
2018-12-15T13:36:38.507Z,0.74
2018-12-15T13:39:42.028Z,0.69
2018-12-15T13:42:46.654Z,0.68
2018-12-15T13:45:50.288Z,0.54
2018-12-15T13:48:53.883Z,0.65
2018-12-15T13:51:57.484Z,0.55
2018-12-15T13:55:00.912Z,0.55
2018-12-15T13:58:04.599Z,0.54
2018-12-15T14:01:08.060Z,0.69
2018-12-15T14:04:11.523Z,0.61
2018-12-15T14:07:15.671Z,0.58
2018-12-15T14:10:19.307Z,0.64
2018-12-15T14:13:22.796Z,0.60
2018-12-15T14:16:26.388Z,0.63
2018-12-15T14:19:29.894Z,0.61
2018-12-15T14:22:33.538Z,0.66
2018-12-15T14:25:37.062Z,0.63
2018-12-15T14:28:40.718Z,0.57
2018-12-15T14:31:44.227Z,0.67
2018-12-15T14:34:47.754Z,0.63
2018-12-15T14:37:51.514Z,0.57
2018-12-15T14:40:55.033Z,0.62
2018-12-15T14:43:58.758Z,0.65
2018-12-15T14:47:02.304Z,0.64
2018-12-15T14:50:06.611Z,0.59
2018-12-15T14:53:10.273Z,0.66
2018-12-15T14:56:13.762Z,0.68
2018-12-15T14:59:17.307Z,0.57
2018-12-15T15:02:20.989Z,0.57
2018-12-15T15:05:24.613Z,0.57
2018-12-15T15:08:28.277Z,0.52
2018-12-15T15:11:31.977Z,0.54
2018-12-15T15:14:35.422Z,0.53
2018-12-15T15:17:39.058Z,0.55
2018-12-15T15:20:42.547Z,0.53
2018-12-15T15:23:47.054Z,0.49
2018-12-15T15:26:50.455Z,0.54
2018-12-15T15:29:53.938Z,0.58
2018-12-15T15:32:57.467Z,0.44
2018-12-15T15:36:01.023Z,0.43
2018-12-15T15:39:07.349Z,0.39
2018-12-15T15:42:10.868Z,0.37
2018-12-15T15:45:14.433Z,0.42
2018-12-15T15:48:17.941Z,0.46
2018-12-15T15:51:21.555Z,0.40
2018-12-15T15:54:25.198Z,0.34
2018-12-15T15:57:28.743Z,0.32
2018-12-15T16:00:32.483Z,0.30
2018-12-15T16:03:36.171Z,0.39
2018-12-15T16:06:39.801Z,0.42
2018-12-15T16:09:45.099Z,0.34
2018-12-15T16:12:48.793Z,0.44
2018-12-15T16:15:52.356Z,0.39
2018-12-15T16:18:55.991Z,0.33
2018-12-15T16:21:59.457Z,0.28
2018-12-15T16:25:03.098Z,0.36
2018-12-15T16:28:06.542Z,0.45
2018-12-15T16:31:10.139Z,0.36
2018-12-15T16:34:13.679Z,0.33
2018-12-15T16:37:17.192Z,0.23
2018-12-15T16:40:20.877Z,0.23
2018-12-15T16:43:24.447Z,0.27
2018-12-15T16:46:27.922Z,0.16
2018-12-15T16:49:31.584Z,0.09
2018-12-15T16:52:35.301Z,0.05
2018-12-15T16:55:38.826Z,0.19
2018-12-15T16:58:42.480Z,0.20
2018-12-15T17:01:47.246Z,0.14
2018-12-15T17:04:50.867Z,0.13
2018-12-15T17:07:54.541Z,0.08
2018-12-15T17:10:58.088Z,0.13
2018-12-15T17:14:01.688Z,0.23
2018-12-15T17:17:05.307Z,0.17
2018-12-15T17:20:10.016Z,0.13
2018-12-15T17:23:16.436Z,0.06
2018-12-15T17:26:19.983Z,0.13
2018-12-15T17:29:23.599Z,0.17
2018-12-15T17:32:28.215Z,0.03
2018-12-15T17:35:31.984Z,0.01
2018-12-15T17:38:35.580Z,0.02
2018-12-15T17:41:39.292Z,-0.10
2018-12-15T17:44:43.050Z,-0.11
2018-12-15T17:47:47.547Z,-0.20
2018-12-15T17:50:51.183Z,-0.29
2018-12-15T17:53:54.813Z,-0.27
2018-12-15T17:56:58.393Z,-0.31
2018-12-15T18:00:01.929Z,-0.34
2018-12-15T18:03:05.551Z,-0.34
2018-12-15T18:06:09.117Z,-0.25
2018-12-15T18:09:12.677Z,-0.22
2018-12-15T18:12:17.311Z,-0.20
2018-12-15T18:15:20.987Z,-0.28
2018-12-15T18:18:24.566Z,-0.29
2018-12-15T18:21:28.132Z,-0.28
2018-12-15T18:24:31.643Z,-0.35
2018-12-15T18:27:35.162Z,-0.28
2018-12-15T18:30:38.681Z,-0.21
2018-12-15T18:33:42.269Z,-0.21
2018-12-15T18:36:47.557Z,-0.25
2018-12-15T18:39:51.182Z,-0.34
2018-12-15T18:42:54.641Z,-0.29
2018-12-15T18:45:58.176Z,-0.22
2018-12-15T18:49:01.937Z,-0.17
2018-12-15T18:52:05.461Z,-0.35
2018-12-15T18:55:09.062Z,-0.34
2018-12-15T18:58:12.603Z,-0.39
2018-12-15T19:01:16.755Z,-0.28
2018-12-15T19:04:20.331Z,-0.35
2018-12-15T19:07:23.927Z,-0.50
2018-12-15T19:10:27.571Z,-0.53
2018-12-15T19:13:31.123Z,-0.43
2018-12-15T19:16:34.752Z,-0.49
2018-12-15T19:19:38.363Z,-0.60
2018-12-15T19:22:42.125Z,-0.71
2018-12-15T19:25:45.798Z,-0.84
2018-12-15T19:28:49.503Z,-0.83
2018-12-15T19:31:54.226Z,-0.86
2018-12-15T19:34:57.753Z,-0.90
2018-12-15T19:38:01.509Z,-0.85
2018-12-15T19:41:05.518Z,-0.84
2018-12-15T19:44:09.102Z,-0.84
2018-12-15T19:47:12.650Z,-0.82
2018-12-15T19:50:16.912Z,-0.73
2018-12-15T19:53:20.638Z,-0.81
2018-12-15T19:56:24.217Z,-0.66
2018-12-15T19:59:27.873Z,-0.66
2018-12-15T20:02:31.701Z,-0.70
2018-12-15T20:05:35.235Z,-0.68
2018-12-15T20:08:39.191Z,-0.66
2018-12-15T20:11:42.860Z,-0.52
2018-12-15T20:14:47.736Z,-0.61
2018-12-15T20:17:51.417Z,-0.51
2018-12-15T20:20:55.151Z,-0.44
2018-12-15T20:23:58.781Z,-0.44
2018-12-15T20:27:02.368Z,-0.35
2018-12-15T20:30:06.852Z,-0.50
2018-12-15T20:33:10.477Z,-0.40
2018-12-15T20:36:14.056Z,-0.36
2018-12-15T20:39:17.747Z,-0.36
2018-12-15T20:42:21.382Z,-0.38
2018-12-15T20:45:25.005Z,-0.36
2018-12-15T20:48:28.582Z,-0.31
2018-12-15T20:51:32.417Z,-0.36
2018-12-15T20:54:36.036Z,-0.46
2018-12-15T20:57:39.690Z,-0.32
2018-12-15T21:00:43.373Z,-0.23
2018-12-15T21:09:26.191Z,-0.30
2018-12-15T21:12:29.876Z,-0.43
2018-12-15T21:15:38.915Z,-0.44
2018-12-15T21:18:42.635Z,-0.51
2018-12-15T21:21:49.443Z,-0.56
2018-12-15T21:24:51.866Z,-0.55
2018-12-15T21:27:55.552Z,-0.56
2018-12-15T21:30:59.636Z,-0.59
2018-12-15T21:34:07.779Z,-0.64
2018-12-15T21:37:08.785Z,-0.67
2018-12-15T21:40:12.507Z,-0.77
2018-12-15T21:43:16.240Z,-0.82
2018-12-15T21:46:19.797Z,-0.85
2018-12-15T21:49:24.656Z,-0.89
2018-12-15T21:52:28.334Z,-0.93
2018-12-15T21:55:31.931Z,-0.86
2018-12-15T21:58:35.618Z,-0.91
2018-12-15T22:01:39.147Z,-0.95
2018-12-15T22:04:42.712Z,-0.83
2018-12-15T22:07:46.316Z,-0.95
2018-12-15T22:10:49.952Z,-0.89
2018-12-15T22:13:53.671Z,-0.88
2018-12-15T22:16:57.247Z,-0.91
2018-12-15T22:20:00.860Z,-0.91
2018-12-15T22:23:04.438Z,-0.90
2018-12-15T22:26:08.077Z,-0.89
2018-12-15T22:29:11.725Z,-0.86
2018-12-15T22:32:15.292Z,-0.84
2018-12-15T22:35:18.890Z,-0.74
2018-12-15T22:38:22.444Z,-0.76
2018-12-15T22:41:26.130Z,-0.83
2018-12-15T22:44:29.634Z,-0.80
2018-12-15T22:47:33.373Z,-0.76
2018-12-15T22:50:36.990Z,-0.76
2018-12-15T22:53:40.719Z,-0.73
2018-12-15T22:56:44.361Z,-0.73
2018-12-15T22:59:48.018Z,-0.72
2018-12-15T23:02:51.897Z,-0.69
2018-12-15T23:05:55.457Z,-0.67
2018-12-15T23:08:59.307Z,-0.61
2018-12-15T23:12:03.217Z,-0.69
2018-12-15T23:15:08.079Z,-0.70
2018-12-15T23:18:11.580Z,-0.65
2018-12-15T23:21:15.206Z,-0.66
2018-12-15T23:24:18.735Z,-0.66
2018-12-15T23:27:22.285Z,-0.74
2018-12-15T23:30:26.579Z,-0.75
2018-12-15T23:33:36.666Z,-0.65
2018-12-15T23:36:40.196Z,-0.75
2018-12-15T23:39:44.115Z,-0.66
2018-12-15T23:42:47.811Z,-0.68
2018-12-15T23:45:51.518Z,-0.82
2018-12-15T23:48:55.193Z,-0.80
2018-12-15T23:51:58.808Z,-0.81
2018-12-15T23:55:02.639Z,-0.84
2018-12-15T23:58:06.210Z,-0.93
